Time;durP1;ratioP1;P1;durP2;ratioP2;P2;SDS_P1;SDS_P2;PMS_P1;PMS_P2;Temp;Humidity;BMP_temperature;BMP_pressure;BME280_temperature;BME280_humidity;BME280_pressure;Samples;Min_cycle;Max_cycle;Signal;HPM_P1;HPM_P2
2023/12/08 00:01:11;;;;;;;1.10;1.10;;;;;;;4.48;nan;-22677.50;5033673;28;20171;-65
2023/12/08 00:03:36;;;;;;;1.27;1.27;;;;;;;4.47;nan;-22677.22;5033472;28;20171;-64
2023/12/08 00:06:02;;;;;;;1.20;1.20;;;;;;;4.50;nan;-22678.00;5032258;28;20260;-65
2023/12/08 00:08:27;;;;;;;1.50;1.40;;;;;;;4.50;nan;-22678.00;5033688;28;20179;-64
2023/12/08 00:10:53;;;;;;;1.60;1.50;;;;;;;4.55;nan;-22363.81;5032917;28;20302;-67
2023/12/08 00:13:18;;;;;;;1.20;1.20;;;;;;;4.60;nan;-22049.41;5033319;28;20206;-67
2023/12/08 00:15:44;;;;;;;1.20;1.20;;;;;;;4.65;nan;-22050.56;5031975;28;20190;-66
2023/12/08 00:18:10;;;;;;;1.63;1.53;;;;;;;4.54;nan;-22363.44;5033509;28;20175;-64
2023/12/08 00:20:36;;;;;;;1.20;1.20;;;;;;;4.33;nan;-22673.78;5033283;28;20603;-64
2023/12/08 00:23:01;;;;;;;1.43;1.40;;;;;;;4.50;nan;-22678.00;5033265;28;20194;-64
2023/12/08 00:25:27;;;;;;;1.20;1.20;;;;;;;4.66;nan;-22050.81;5033413;28;20635;-66
2023/12/08 00:27:52;;;;;;;1.30;1.30;;;;;;;4.38;nan;-22359.56;5033441;28;20611;-66
2023/12/08 00:30:18;;;;;;;1.10;1.10;;;;;;;4.55;nan;-22048.00;5033520;28;20222;-64
2023/12/08 00:32:43;;;;;;;1.20;1.20;;;;;;;4.08;nan;-22036.34;5032463;28;20646;-65
2023/12/08 00:35:08;;;;;;;1.40;1.30;;;;;;;4.47;nan;-22361.63;5033511;28;20194;-64
2023/12/08 00:37:34;;;;;;;1.13;1.13;;;;;;;4.26;nan;-21725.34;5032975;28;20233;-64
2023/12/08 00:40:00;;;;;;;1.30;1.30;;;;;;;4.32;nan;-22358.00;5033247;28;20232;-66
2023/12/08 00:42:26;;;;;;;1.50;1.40;;;;;;;4.46;nan;-20783.03;5033458;28;20521;-65
2023/12/08 00:44:52;;;;;;;1.20;1.20;;;;;;;4.44;nan;-21729.81;5033091;28;20182;-65
2023/12/08 00:47:17;;;;;;;1.13;1.13;;;;;;;4.28;nan;-21094.63;5033422;28;20183;-66
2023/12/08 00:49:42;;;;;;;1.03;1.03;;;;;;;4.30;nan;-21726.34;5032733;28;20524;-64
2023/12/08 00:52:08;;;;;;;1.17;1.17;;;;;;;4.33;nan;-22042.69;5032588;28;20558;-66
2023/12/08 00:54:33;;;;;;;1.10;1.10;;;;;;;4.37;nan;-21728.09;5032669;28;20259;-64
2023/12/08 00:56:58;;;;;;;1.53;1.30;;;;;;;4.11;nan;-21406.00;5032757;28;20186;-66
2023/12/08 00:59:24;;;;;;;1.50;1.40;;;;;;;4.24;nan;-21093.66;5033093;28;20361;-66
2023/12/08 01:01:49;;;;;;;7.43;1.33;;;;;;;4.25;nan;-21409.41;5032472;28;20230;-65
2023/12/08 01:04:15;;;;;;;1.50;1.40;;;;;;;4.44;nan;-21729.81;5032515;28;20562;-66
2023/12/08 01:06:40;;;;;;;1.20;1.20;;;;;;;4.43;nan;-21729.44;5031080;28;20338;-65
2023/12/08 01:09:05;;;;;;;1.53;1.33;;;;;;;4.39;nan;-19518.31;5032576;28;20190;-64
2023/12/08 01:11:31;;;;;;;1.30;1.27;;;;;;;4.37;nan;-20149.41;5032570;28;20179;-64
2023/12/08 01:13:56;;;;;;;1.20;1.20;;;;;;;4.48;nan;-20467.56;5032799;28;20252;-65
2023/12/08 01:16:22;;;;;;;1.20;1.20;;;;;;;4.46;nan;-20467.22;5032511;28;20160;-64
2023/12/08 01:18:47;;;;;;;1.07;1.07;;;;;;;4.23;nan;-19830.69;5032671;28;20250;-64
2023/12/08 01:21:13;;;;;;;1.27;1.23;;;;;;;4.56;nan;-20469.50;5032415;28;20171;-65
2023/12/08 01:23:38;;;;;;;1.20;1.20;;;;;;;4.63;nan;-19207.28;5031964;28;20655;-68
2023/12/08 01:26:08;;;;;;;1.10;1.10;;;;;;;4.48;nan;-19520.00;5032143;28;20167;-65
2023/12/08 01:28:34;;;;;;;3.90;1.33;;;;;;;4.41;nan;-20150.31;5032262;28;20255;-64
2023/12/08 01:31:00;;;;;;;1.53;1.43;;;;;;;4.61;nan;-19838.72;5032028;28;20670;-65
2023/12/08 01:33:25;;;;;;;1.50;1.33;;;;;;;1.09;nan;-18820.50;5032215;28;20215;-64
2023/12/08 01:35:50;;;;;;;1.17;1.17;;;;;;;4.55;nan;-19205.63;5031979;28;20262;-65
2023/12/08 01:38:16;;;;;;;1.43;1.33;;;;;;;4.74;nan;-18577.25;5032065;28;20675;-64
2023/12/08 01:40:41;;;;;;;1.43;1.33;;;;;;;4.53;nan;-18573.13;5032002;28;20171;-65
2023/12/08 01:43:13;;;;;;;1.17;1.17;;;;;;;4.56;nan;-19205.84;5031792;28;20178;-64
2023/12/08 01:45:41;;;;;;;1.20;1.20;;;;;;;4.50;nan;-18888.66;5031925;28;20516;-64
2023/12/08 01:48:08;;;;;;;1.40;1.30;;;;;;;4.50;nan;-19204.50;5031877;28;20175;-64
2023/12/08 01:50:34;;;;;;;1.57;1.47;;;;;;;4.61;nan;-19206.78;5031866;28;20195;-64
2023/12/08 01:53:00;;;;;;;1.10;1.10;;;;;;;4.56;nan;-19205.75;5031919;28;20245;-64
2023/12/08 01:55:27;;;;;;;1.77;1.67;;;;;;;4.39;nan;-19834.16;5031767;28;20164;-64
2023/12/08 01:57:53;;;;;;;2.10;1.77;;;;;;;4.64;nan;-19207.41;5031532;28;20190;-65
2023/12/08 02:00:18;;;;;;;1.33;1.30;;;;;;;4.62;nan;-19522.97;5030402;28;20175;-64
2023/12/08 02:02:44;;;;;;;1.33;1.27;;;;;;;4.26;nan;-19831.34;5032056;28;20183;-65
2023/12/08 02:05:09;;;;;;;1.20;1.17;;;;;;;4.38;nan;-19833.84;5030088;28;20302;-65
2023/12/08 02:07:35;;;;;;;1.60;1.50;;;;;;;4.49;nan;-20151.97;5031898;28;20207;-66
2023/12/08 02:10:01;;;;;;;1.17;1.17;;;;;;;4.49;nan;-19836.22;5031384;28;20753;-64
2023/12/08 02:12:27;;;;;;;2.20;1.30;;;;;;;4.28;nan;-19200.16;5031516;28;20199;-64
2023/12/08 02:14:52;;;;;;;1.33;1.30;;;;;;;4.50;nan;-18888.53;5031236;28;20251;-63
2023/12/08 02:17:24;;;;;;;1.27;1.20;;;;;;;4.35;nan;-19201.50;5031515;28;20171;-63
2023/12/08 02:19:51;;;;;;;1.10;1.10;;;;;;;4.38;nan;-19202.13;5030944;28;20175;-65
2023/12/08 02:22:18;;;;;;;1.50;1.40;;;;;;;4.53;nan;-18889.16;5030566;28;20177;-64
2023/12/08 02:24:44;;;;;;;2.10;2.00;;;;;;;4.25;nan;-19199.53;5030996;28;20174;-64
2023/12/08 02:27:11;;;;;;;1.43;1.33;;;;;;;4.32;nan;-19832.53;5031282;28;20179;-64
2023/12/08 02:29:36;;;;;;;1.20;1.20;;;;;;;4.40;nan;-19202.53;5030994;28;20223;-65
2023/12/08 02:32:10;;;;;;;1.17;1.17;;;;;;;4.33;nan;-19832.75;5030895;28;20256;-64
2023/12/08 02:34:37;;;;;;;1.80;1.70;;;;;;;4.37;nan;-20149.41;5030849;28;20697;-65
2023/12/08 02:37:05;;;;;;;1.10;1.10;;;;;;;4.61;nan;-19522.75;5031275;28;20280;-64
2023/12/08 02:39:31;;;;;;;1.60;1.50;;;;;;;4.63;nan;-19839.16;5031013;28;20623;-64
2023/12/08 02:41:56;;;;;;;2.03;1.83;;;;;;;4.31;nan;-20148.06;5029679;28;20635;-64
2023/12/08 02:44:22;;;;;;;1.40;1.30;;;;;;;4.36;nan;-20149.19;5031112;28;20183;-64
2023/12/08 02:46:47;;;;;;;1.50;1.40;;;;;;;4.49;nan;-20152.09;5030629;28;20215;-64
2023/12/08 02:49:13;;;;;;;1.30;1.30;;;;;;;4.22;nan;-20777.44;5031319;28;20563;-65
2023/12/08 02:51:38;;;;;;;1.60;1.50;;;;;;;4.48;nan;-20467.56;5030557;28;20179;-63
2023/12/08 02:54:04;;;;;;;1.20;1.20;;;;;;;4.35;nan;-20780.56;5030887;28;20179;-65
2023/12/08 02:56:29;;;;;;;1.60;1.50;;;;;;;4.15;nan;-20775.81;5030412;28;20211;-64
2023/12/08 02:58:55;;;;;;;2.90;2.03;;;;;;;4.41;nan;-20781.84;5030929;28;20185;-64
2023/12/08 03:01:20;;;;;;;1.70;1.60;;;;;;;2.50;nan;-20737.91;5030473;28;20186;-64
2023/12/08 03:03:46;;;;;;;2.23;1.80;;;;;;;4.38;nan;-21097.00;5031158;28;20241;-63
2023/12/08 03:06:11;;;;;;;1.20;1.20;;;;;;;4.15;nan;-21091.53;5030732;28;20178;-64
2023/12/08 03:08:36;;;;;;;1.37;1.37;;;;;;;4.27;nan;-21094.25;5029520;28;20198;-64
2023/12/08 03:11:02;;;;;;;1.63;1.53;;;;;;;4.34;nan;-21095.91;5029125;28;20183;-63
2023/12/08 03:13:27;;;;;;;1.20;1.20;;;;;;;4.30;nan;-21410.63;5030149;28;20209;-64
2023/12/08 03:15:53;;;;;;;1.30;1.30;;;;;;;4.08;nan;-21405.25;5030364;28;20543;-63
2023/12/08 03:18:18;;;;;;;1.27;1.27;;;;;;;4.28;nan;-21094.50;5030439;28;20194;-64
2023/12/08 03:20:44;;;;;;;1.30;1.30;;;;;;;4.27;nan;-21409.88;5030009;28;20217;-64
2023/12/08 03:23:09;;;;;;;1.83;1.73;;;;;;;4.09;nan;-21405.50;5029988;28;20253;-64
2023/12/08 03:25:34;;;;;;;1.53;1.43;;;;;;;4.12;nan;-21721.75;5030230;28;20175;-63
2023/12/08 03:28:00;;;;;;;3.03;2.03;;;;;;;4.06;nan;-21404.91;5030651;28;20183;-62
2023/12/08 03:30:26;;;;;;;1.27;1.27;;;;;;;4.09;nan;-21089.97;5030301;28;20684;-64
2023/12/08 03:32:51;;;;;;;1.90;1.80;;;;;;;4.25;nan;-21409.53;5030152;28;20199;-65
2023/12/08 03:35:16;;;;;;;1.50;1.40;;;;;;;4.31;nan;-21095.31;5030230;28;20190;-63
2023/12/08 03:37:42;;;;;;;1.90;1.67;;;;;;;4.42;nan;-20150.53;5030270;28;20255;-64
2023/12/08 03:40:08;;;;;;;1.30;1.30;;;;;;;4.40;nan;-20465.97;5030380;28;20193;-64
2023/12/08 03:42:36;;;;;;;1.40;1.30;;;;;;;4.34;nan;-20780.34;5028276;28;20195;-65
2023/12/08 03:45:03;;;;;;;1.43;1.37;;;;;;;4.27;nan;-20778.72;5028159;28;20618;-64
2023/12/08 03:47:28;;;;;;;1.70;1.60;;;;;;;4.21;nan;-20145.84;5028482;28;20268;-65
2023/12/08 03:49:54;;;;;;;1.67;1.57;;;;;;;4.38;nan;-20465.53;5028200;28;20207;-65
2023/12/08 03:52:19;;;;;;;1.70;1.60;;;;;;;4.34;nan;-20148.75;5028100;28;20191;-65
2023/12/08 03:54:44;;;;;;;2.80;1.83;;;;;;;4.34;nan;-20148.75;5028179;28;20167;-63
2023/12/08 03:57:10;;;;;;;1.23;1.23;;;;;;;4.14;nan;-19828.63;5029400;28;20635;-65
2023/12/08 03:59:35;;;;;;;2.20;1.63;;;;;;;4.20;nan;-19830.03;5030457;28;20179;-64
2023/12/08 04:02:02;;;;;;;1.77;1.67;;;;;;;4.13;nan;-19828.41;5030321;28;20171;-64
2023/12/08 04:04:27;;;;;;;1.20;1.20;;;;;;;4.39;nan;-19834.16;5030257;28;20179;-65
2023/12/08 04:06:53;;;;;;;1.50;1.40;;;;;;;4.53;nan;-19521.06;5030023;28;20263;-66
2023/12/08 04:09:19;;;;;;;1.30;1.30;;;;;;;4.43;nan;-19519.16;5033573;28;20227;-63
2023/12/08 04:11:44;;;;;;;1.37;1.33;;;;;;;4.19;nan;-19829.81;5033358;28;20209;-65
2023/12/08 04:14:09;;;;;;;1.50;1.40;;;;;;;4.18;nan;-19513.75;5033397;28;20548;-65
2023/12/08 04:16:35;;;;;;;2.80;1.47;;;;;;;4.40;nan;-19202.63;5033788;28;20258;-63
2023/12/08 04:19:00;;;;;;;1.50;1.40;;;;;;;4.23;nan;-19514.91;5033500;28;20168;-64
2023/12/08 04:21:26;;;;;;;1.67;1.57;;;;;;;4.49;nan;-19836.09;5033110;28;20186;-67
2023/12/08 04:23:51;;;;;;;1.30;1.30;;;;;;;4.22;nan;-19514.72;5031922;28;20190;-67
2023/12/08 04:26:20;;;;;;;1.50;1.40;;;;;;;4.20;nan;-20145.75;5033297;28;20183;-65
2023/12/08 04:28:46;;;;;;;1.50;1.40;;;;;;;4.39;nan;-20149.88;5033149;28;20556;-65
2023/12/08 04:31:11;;;;;;;1.17;1.17;;;;;;;4.26;nan;-20147.06;5032939;28;20230;-65
2023/12/08 04:33:37;;;;;;;1.60;1.50;;;;;;;4.51;nan;-19836.66;5033044;28;20215;-64
2023/12/08 04:36:02;;;;;;;1.20;1.20;;;;;;;4.47;nan;-19519.91;5033081;28;20258;-65
2023/12/08 04:38:27;;;;;;;1.30;1.30;;;;;;;4.50;nan;-19204.50;5033195;28;20175;-63
2023/12/08 04:40:53;;;;;;;1.30;1.30;;;;;;;4.30;nan;-19200.56;5032963;28;20570;-65
2023/12/08 04:43:18;;;;;;;1.27;1.27;;;;;;;4.53;nan;-19205.13;5032814;28;20209;-65
2023/12/08 04:45:44;;;;;;;1.20;1.20;;;;;;;4.51;nan;-18572.75;5032931;28;20189;-64
2023/12/08 04:48:09;;;;;;;1.40;1.30;;;;;;;4.14;nan;-18565.59;5033272;28;20198;-66
2023/12/08 04:50:34;;;;;;;1.63;1.47;;;;;;;4.50;nan;-18572.56;5032771;28;20266;-68
2023/12/08 04:53:00;;;;;;;1.33;1.33;;;;;;;4.45;nan;-19203.69;5032574;28;20210;-65
2023/12/08 04:55:25;;;;;;;2.47;1.60;;;;;;;4.31;nan;-18569.03;5032870;28;20176;-65
2023/12/08 04:57:51;;;;;;;1.53;1.43;;;;;;;4.49;nan;-18572.44;5032997;28;20181;-64
2023/12/08 05:00:17;;;;;;;1.50;1.40;;;;;;;4.58;nan;-18574.13;5032670;28;20175;-65
2023/12/08 05:02:42;;;;;;;1.60;1.50;;;;;;;4.65;nan;-18259.41;5031641;28;20175;-66
2023/12/08 05:05:08;;;;;;;1.50;1.40;;;;;;;4.41;nan;-18255.00;5032764;28;20690;-66
2023/12/08 05:07:33;;;;;;;1.47;1.37;;;;;;;4.57;nan;-17941.78;5032789;28;20179;-64
2023/12/08 05:10:00;;;;;;;2.50;1.40;;;;;;;4.34;nan;-18253.56;5032186;28;20171;-65
2023/12/08 05:12:25;;;;;;;2.83;1.77;;;;;;;4.42;nan;-18571.19;5032754;28;20203;-65
2023/12/08 05:14:51;;;;;;;1.70;1.60;;;;;;;4.33;nan;-18885.31;5032467;28;20187;-64
2023/12/08 05:17:16;;;;;;;1.20;1.20;;;;;;;4.29;nan;-19200.38;5032488;28;20540;-64
2023/12/08 05:19:42;;;;;;;1.30;1.30;;;;;;;4.33;nan;-19201.19;5031848;28;20171;-65
2023/12/08 05:22:08;;;;;;;1.70;1.60;;;;;;;4.43;nan;-19519.16;5032201;28;20194;-66
2023/12/08 05:24:33;;;;;;;1.93;1.83;;;;;;;4.47;nan;-19835.69;5032029;28;20726;-64
2023/12/08 05:26:58;;;;;;;1.50;1.40;;;;;;;4.23;nan;-19830.69;5031990;28;20176;-64
2023/12/08 05:29:24;;;;;;;2.03;1.93;;;;;;;4.50;nan;-19520.44;5031860;28;20183;-65
2023/12/08 05:31:49;;;;;;;1.80;1.70;;;;;;;4.24;nan;-19830.91;5030917;28;20258;-64
2023/12/08 05:34:14;;;;;;;1.70;1.60;;;;;;;4.44;nan;-19519.38;5031817;28;20175;-64
2023/12/08 05:36:40;;;;;;;1.57;1.47;;;;;;;4.55;nan;-18889.56;5031716;28;20267;-65
2023/12/08 05:39:06;;;;;;;1.60;1.50;;;;;;;4.51;nan;-19520.75;5031887;28;20650;-63
2023/12/08 05:41:31;;;;;;;2.00;1.90;;;;;;;4.50;nan;-19204.50;5031925;28;20258;-64
2023/12/08 05:43:57;;;;;;;2.60;1.83;;;;;;;4.50;nan;-19204.50;5031477;28;20276;-64
2023/12/08 05:46:22;;;;;;;1.30;1.30;;;;;;;4.21;nan;-19198.72;5031958;28;20628;-64
2023/12/08 05:48:47;;;;;;;1.70;1.60;;;;;;;4.34;nan;-19201.41;5031775;28;20187;-64
2023/12/08 05:51:13;;;;;;;1.10;1.10;;;;;;;0.48;nan;-18808.22;5032084;28;20290;-64
2023/12/08 05:53:38;;;;;;;1.53;1.43;;;;;;;4.55;nan;-19205.63;5031722;28;20211;-65
2023/12/08 05:56:04;;;;;;;2.60;2.20;;;;;;;4.60;nan;-18574.50;5031640;28;20627;-63
2023/12/08 05:58:29;;;;;;;1.30;1.30;;;;;;;4.47;nan;-18888.03;5031763;28;20206;-67
2023/12/08 06:00:56;;;;;;;2.60;1.63;;;;;;;4.59;nan;-18574.41;5031920;28;20207;-65
2023/12/08 06:03:21;;;;;;;2.50;2.17;;;;;;;4.67;nan;-17627.56;5031674;28;20233;-65
2023/12/08 06:05:47;;;;;;;1.50;1.40;;;;;;;4.50;nan;-17940.56;5030736;28;20409;-65
2023/12/08 06:08:13;;;;;;;1.10;1.10;;;;;;;4.69;nan;-18260.16;5031294;28;20167;-65
2023/12/08 06:10:38;;;;;;;1.93;1.83;;;;;;;4.67;nan;-18575.97;5031248;28;20642;-65
2023/12/08 06:13:04;;;;;;;1.20;1.20;;;;;;;4.67;nan;-17943.72;5030932;28;20210;-64
2023/12/08 06:15:29;;;;;;;1.50;1.40;;;;;;;4.68;nan;-17943.91;5031239;28;20183;-66
2023/12/08 06:17:55;;;;;;;1.50;1.40;;;;;;;4.66;nan;-17627.28;5031083;28;20178;-65
2023/12/08 06:20:21;;;;;;;2.07;1.93;;;;;;;4.54;nan;-17309.06;5030886;28;20182;-64
2023/12/08 06:22:46;;;;;;;1.40;1.30;;;;;;;1.86;nan;-17577.09;5029580;28;20289;-64
2023/12/08 06:25:11;;;;;;;1.80;1.70;;;;;;;4.68;nan;-18259.97;5031034;28;20175;-64
2023/12/08 06:27:37;;;;;;;1.87;1.77;;;;;;;4.49;nan;-18572.34;5030690;28;20249;-66
2023/12/08 06:30:03;;;;;;;1.70;1.60;;;;;;;4.58;nan;-18258.16;5029918;28;20225;-65
2023/12/08 06:32:29;;;;;;;2.33;1.87;;;;;;;4.77;nan;-17629.28;5031055;28;20654;-64
2023/12/08 06:34:55;;;;;;;1.43;1.40;;;;;;;4.79;nan;-17629.63;5031059;28;20183;-64
2023/12/08 06:37:20;;;;;;;1.70;1.60;;;;;;;4.84;nan;-17314.34;5030749;28;20266;-66
2023/12/08 06:39:46;;;;;;;1.60;1.50;;;;;;;4.64;nan;-17310.75;5030795;28;20631;-66
2023/12/08 06:42:11;;;;;;;2.20;2.07;;;;;;;4.78;nan;-18261.88;5030147;28;20286;-64
2023/12/08 06:44:37;;;;;;;1.80;1.70;;;;;;;4.87;nan;-17314.78;5030061;28;20258;-64
2023/12/08 06:47:02;;;;;;;1.53;1.43;;;;;;;4.61;nan;-17626.38;5030041;28;20171;-64
2023/12/08 06:49:28;;;;;;;2.37;2.10;;;;;;;4.92;nan;-16366.38;5030479;28;20218;-65
2023/12/08 06:51:53;;;;;;;1.73;1.63;;;;;;;4.57;nan;-17309.50;5030559;28;20522;-64
2023/12/08 06:54:19;;;;;;;2.37;2.17;;;;;;;4.98;nan;-16683.78;5030785;28;20168;-64
2023/12/08 06:56:44;;;;;;;2.17;2.07;;;;;;;4.71;nan;-17311.97;5030344;28;20171;-65
2023/12/08 06:59:10;;;;;;;1.50;1.40;;;;;;;4.84;nan;-16681.56;5030233;28;20186;-67
2023/12/08 07:01:36;;;;;;;1.80;1.70;;;;;;;4.99;nan;-16051.00;5030563;28;20190;-65
2023/12/08 07:04:03;;;;;;;4.60;1.77;;;;;;;4.92;nan;-16050.00;5030499;28;20668;-65
2023/12/08 07:06:32;;;;;;;1.70;1.60;;;;;;;4.65;nan;-17310.91;5030337;28;20245;-65
2023/12/08 07:08:58;;;;;;;1.50;1.40;;;;;;;4.59;nan;-16993.66;5030190;28;20175;-67
2023/12/08 07:11:23;;;;;;;1.57;1.47;;;;;;;4.77;nan;-16680.50;5028665;28;20183;-65
2023/12/08 07:13:49;;;;;;;2.03;1.83;;;;;;;4.80;nan;-16680.91;5029206;28;20690;-64
2023/12/08 07:16:14;;;;;;;1.50;1.40;;;;;;;4.75;nan;-17312.75;5028895;28;20631;-64
2023/12/08 07:18:40;;;;;;;2.27;2.07;;;;;;;4.76;nan;-17629.09;5028643;28;20186;-64
2023/12/08 07:21:06;;;;;;;1.90;1.80;;;;;;;4.82;nan;-17630.19;5028414;28;20343;-65
2023/12/08 07:23:31;;;;;;;1.97;1.87;;;;;;;4.84;nan;-16997.94;5028550;28;20221;-66
2023/12/08 07:25:57;;;;;;;2.07;1.90;;;;;;;4.88;nan;-16365.91;5028156;28;20183;-65
2023/12/08 07:28:22;;;;;;;1.83;1.73;;;;;;;4.79;nan;-15415.13;5029092;28;20557;-65
2023/12/08 07:30:48;;;;;;;1.40;1.40;;;;;;;4.61;nan;-16045.22;5030667;28;20762;-64
2023/12/08 07:33:13;;;;;;;1.67;1.57;;;;;;;4.79;nan;-16680.84;5030482;28;20294;-64
2023/12/08 07:35:38;;;;;;;1.37;1.30;;;;;;;4.84;nan;-16997.94;5030324;28;20195;-65
2023/12/08 07:38:04;;;;;;;2.33;1.83;;;;;;;4.69;nan;-16362.78;5030095;28;20178;-65
2023/12/08 07:40:30;;;;;;;1.60;1.50;;;;;;;4.95;nan;-16050.41;5030184;28;20181;-65
2023/12/08 07:42:55;;;;;;;2.60;2.40;;;;;;;5.01;nan;-16367.91;5033738;28;20527;-65
2023/12/08 07:45:21;;;;;;;3.30;1.87;;;;;;;4.99;nan;-16051.09;5034185;28;20229;-64
2023/12/08 07:47:47;;;;;;;1.20;1.20;;;;;;;5.01;nan;-15101.72;5034182;28;20689;-66
2023/12/08 07:50:13;;;;;;;1.47;1.40;;;;;;;4.78;nan;-16047.94;5034509;28;20183;-64
2023/12/08 07:52:41;;;;;;;1.53;1.43;;;;;;;4.88;nan;-16365.81;5034065;28;20202;-65
2023/12/08 07:55:10;;;;;;;1.93;1.83;;;;;;;4.79;nan;-16048.00;5033706;28;20604;-65
2023/12/08 07:57:36;;;;;;;1.33;1.30;;;;;;;4.98;nan;-16050.84;5032569;28;20265;-65
2023/12/08 08:00:05;;;;;;;2.43;2.23;;;;;;;5.05;nan;-16368.47;5033312;28;20294;-64
2023/12/08 08:02:31;;;;;;;1.40;1.40;;;;;;;4.95;nan;-16366.94;5033092;28;20298;-65
2023/12/08 08:04:57;;;;;;;1.17;1.17;;;;;;;5.09;nan;-16052.63;5033098;28;20572;-65
2023/12/08 08:07:22;;;;;;;1.47;1.37;;;;;;;5.06;nan;-15735.53;5032200;28;20183;-64
2023/12/08 08:09:48;;;;;;;1.50;1.40;;;;;;;4.86;nan;-16049.09;5031815;28;20180;-65
2023/12/08 08:12:15;;;;;;;2.80;2.07;;;;;;;5.05;nan;-15735.47;5032619;28;20265;-64
2023/12/08 08:14:40;;;;;;;1.13;1.13;;;;;;;4.96;nan;-15100.94;5033216;28;20207;-66
2023/12/08 08:17:06;;;;;;;1.50;1.40;;;;;;;4.96;nan;-13834.44;5032203;28;20303;-64
2023/12/08 08:19:31;;;;;;;1.50;1.40;;;;;;;5.14;nan;-14786.75;5033052;28;20186;-65
2023/12/08 08:21:57;;;;;;;1.73;1.63;;;;;;;5.27;nan;-15738.75;5063862;28;20777;-66
2023/12/08 08:24:22;;;;;;;1.17;1.17;;;;;;;5.39;nan;-14156.28;5032398;28;20270;-65
2023/12/08 08:26:48;;;;;;;1.77;1.67;;;;;;;5.30;nan;-13838.44;5032301;28;20249;-64
2023/12/08 08:29:13;;;;;;;1.20;1.20;;;;;;;5.14;nan;-15420.09;5032154;28;20179;-65
2023/12/08 08:31:39;;;;;;;2.50;1.70;;;;;;;5.17;nan;-16053.78;5031482;28;20656;-65
2023/12/08 08:34:05;;;;;;;1.37;1.37;;;;;;;5.28;nan;-16372.13;5031776;28;20221;-66
2023/12/08 08:36:31;;;;;;;1.93;1.83;;;;;;;5.31;nan;-15739.34;5032566;28;20263;-66
2023/12/08 08:38:56;;;;;;;1.73;1.53;;;;;;;5.18;nan;-16370.63;5031791;28;20187;-65
2023/12/08 08:41:22;;;;;;;2.23;2.07;;;;;;;5.19;nan;-17003.78;5032126;28;20286;-66
2023/12/08 08:43:49;;;;;;;1.37;1.30;;;;;;;5.09;nan;-17002.16;5032432;28;20658;-67
2023/12/08 08:46:14;;;;;;;1.80;1.70;;;;;;;5.32;nan;-17006.00;5031835;28;20198;-67
2023/12/08 08:48:40;;;;;;;1.83;1.70;;;;;;;5.38;nan;-17640.09;5032493;28;20187;-65
2023/12/08 08:51:06;;;;;;;1.57;1.47;;;;;;;5.14;nan;-17952.38;5063625;28;20643;-66
2023/12/08 08:53:32;;;;;;;1.37;1.30;;;;;;;5.30;nan;-17638.84;5030179;28;20270;-66
2023/12/08 08:55:57;;;;;;;1.67;1.50;;;;;;;5.23;nan;-17637.47;5031946;28;20202;-65
2023/12/08 08:58:22;;;;;;;1.50;1.40;;;;;;;4.97;nan;-18581.78;5031915;28;20705;-65
2023/12/08 09:00:48;;;;;;;1.30;1.30;;;;;;;4.88;nan;-18263.88;5031944;28;20191;-64
2023/12/08 09:03:14;;;;;;;2.13;1.93;;;;;;;4.94;nan;-18581.19;5031285;28;20233;-66
2023/12/08 09:05:42;;;;;;;1.70;1.60;;;;;;;5.10;nan;-18900.63;5031688;28;20187;-66
2023/12/08 09:08:09;;;;;;;1.37;1.30;;;;;;;4.97;nan;-19530.28;5062892;28;20252;-65
2023/12/08 09:10:35;;;;;;;1.20;1.20;;;;;;;4.87;nan;-20160.41;5032143;28;20269;-64
2023/12/08 09:13:01;;;;;;;2.00;1.90;;;;;;;5.00;nan;-19530.91;5031514;28;20242;-65
2023/12/08 09:15:27;;;;;;;1.50;1.40;;;;;;;5.05;nan;-19215.84;5030928;28;20270;-65
2023/12/08 09:17:53;;;;;;;1.50;1.40;;;;;;;5.09;nan;-19849.13;5031565;28;20269;-65
2023/12/08 09:20:19;;;;;;;1.57;1.30;;;;;;;5.12;nan;-20482.13;5032575;28;20175;-63
2023/12/08 09:22:45;;;;;;;1.50;1.40;;;;;;;4.93;nan;-20477.81;5031897;28;20278;-64
2023/12/08 09:25:11;;;;;;;1.60;1.50;;;;;;;5.16;nan;-20483.03;5032260;28;20537;-64
2023/12/08 09:27:36;;;;;;;1.57;1.47;;;;;;;4.99;nan;-20795.22;5032201;28;20179;-65
2023/12/08 09:30:02;;;;;;;1.20;1.20;;;;;;;5.13;nan;-20482.34;5029962;28;20728;-65
2023/12/08 09:32:28;;;;;;;1.77;1.67;;;;;;;4.96;nan;-20478.50;5031076;28;20689;-65
2023/12/08 09:34:54;;;;;;;2.20;1.50;;;;;;;4.78;nan;-20474.50;5032038;28;20179;-65
2023/12/08 09:37:19;;;;;;;1.80;1.70;;;;;;;4.91;nan;-20161.31;5030954;28;20257;-65
2023/12/08 09:39:45;;;;;;;1.90;1.77;;;;;;;4.89;nan;-20476.91;5031133;28;20191;-65
2023/12/08 09:42:38;;;;;;;1.80;1.70;;;;;;;4.97;nan;-20478.59;5031242;28;20558;-65
2023/12/08 09:45:05;;;;;;;2.13;1.43;;;;;;;4.79;nan;-20790.59;5027592;28;20194;-65
2023/12/08 09:47:34;;;;;;;1.40;1.30;;;;;;;2.06;nan;-21042.16;5030150;28;20562;-67
2023/12/08 09:50:02;;;;;;;1.40;1.30;;;;;;;5.17;nan;-21115.53;5031479;28;20634;-65
2023/12/08 09:52:29;;;;;;;1.37;1.33;;;;;;;4.82;nan;-21423.25;5030779;28;20211;-66
2023/12/08 09:54:55;;;;;;;1.63;1.53;;;;;;;4.97;nan;-21742.59;5030881;28;20175;-65
2023/12/08 09:57:21;;;;;;;2.40;1.57;;;;;;;5.20;nan;-21116.25;5030071;28;20191;-66
2023/12/08 09:59:47;;;;;;;1.40;1.30;;;;;;;5.09;nan;-21113.50;5030400;28;20185;-66
2023/12/08 10:02:13;;;;;;;1.80;1.70;;;;;;;5.08;nan;-20481.09;5030046;28;20247;-66
2023/12/08 10:04:39;;;;;;;2.00;1.90;;;;;;;5.28;nan;-20485.75;5031557;28;20195;-65
2023/12/08 10:07:09;;;;;;;1.60;1.50;;;;;;;5.22;nan;-20484.28;5030441;28;20179;-64
2023/12/08 10:09:36;;;;;;;2.33;1.83;;;;;;;5.37;nan;-20487.69;5030257;28;20179;-65
2023/12/08 10:12:02;;;;;;;1.67;1.57;;;;;;;1.88;nan;-19465.41;5030156;28;20716;-65
2023/12/08 10:14:27;;;;;;;1.80;1.70;;;;;;;5.25;nan;-19219.88;5030968;28;20184;-66
2023/12/08 10:16:53;;;;;;;1.73;1.63;;;;;;;5.11;nan;-19849.44;5031108;28;20171;-65
2023/12/08 10:19:22;;;;;;;1.77;1.67;;;;;;;5.08;nan;-20481.22;5031122;28;20172;-65
2023/12/08 10:22:00;;;;;;;3.23;2.13;;;;;;;5.14;nan;-21430.78;5031292;28;20171;-65
2023/12/08 10:24:32;;;;;;;1.67;1.50;;;;;;;5.38;nan;-21120.41;5031280;28;20549;-65
2023/12/08 10:26:59;;;;;;;1.50;1.40;;;;;;;5.37;nan;-21120.06;5030976;28;20612;-66
2023/12/08 10:29:30;;;;;;;1.87;1.60;;;;;;;5.36;nan;-21119.81;5029230;28;20164;-66
2023/12/08 10:31:57;;;;;;;2.50;1.80;;;;;;;5.58;nan;-21125.16;5029724;28;20262;-66
2023/12/08 10:34:22;;;;;;;2.53;1.93;;;;;;;5.43;nan;-21437.81;5029051;28;20175;-65
2023/12/08 10:36:49;;;;;;;1.50;1.40;;;;;;;5.52;nan;-20174.72;5028824;28;20195;-65
2023/12/08 10:39:17;;;;;;;2.03;1.77;;;;;;;5.45;nan;-20489.50;5030003;28;20198;-66
2023/12/08 10:41:42;;;;;;;1.80;1.70;;;;;;;5.09;nan;-18900.41;5030398;28;20547;-65
2023/12/08 10:44:08;;;;;;;2.13;1.93;;;;;;;5.35;nan;-20487.25;5030713;28;20194;-65
2023/12/08 10:46:35;;;;;;;1.40;1.30;;;;;;;5.27;nan;-21434.06;5031454;28;20259;-65
2023/12/08 10:49:01;;;;;;;1.50;1.40;;;;;;;5.17;nan;-20483.16;5030417;28;20168;-64
2023/12/08 10:51:29;;;;;;;1.63;1.53;;;;;;;5.52;nan;-21123.72;5030758;28;20182;-65
2023/12/08 10:53:55;;;;;;;1.77;1.67;;;;;;;5.45;nan;-21121.94;5030393;28;20211;-64
2023/12/08 10:56:21;;;;;;;1.37;1.37;;;;;;;5.28;nan;-20485.75;5030688;28;20186;-64
2023/12/08 10:58:56;;;;;;;1.57;1.47;;;;;;;5.13;nan;-20166.09;5030743;28;20203;-64
2023/12/08 11:01:23;;;;;;;1.50;1.40;;;;;;;5.19;nan;-20799.75;5030776;28;20677;-64
2023/12/08 11:03:56;;;;;;;2.70;2.00;;;;;;;5.19;nan;-21116.00;5030732;28;20164;-65
2023/12/08 11:06:25;;;;;;;1.57;1.47;;;;;;;5.31;nan;-20802.66;5030479;28;20182;-65
2023/12/08 11:08:56;;;;;;;1.70;1.60;;;;;;;5.23;nan;-21116.97;5030215;28;20236;-65
2023/12/08 11:11:24;;;;;;;2.03;1.93;;;;;;;5.42;nan;-21121.34;5028946;28;20175;-64
2023/12/08 11:14:02;;;;;;;2.37;2.17;;;;;;;5.35;nan;-20803.47;5030406;28;20302;-64
2023/12/08 11:16:35;;;;;;;1.80;1.70;;;;;;;5.50;nan;-21123.13;5031354;28;20254;-65
2023/12/08 11:19:00;;;;;;;1.73;1.63;;;;;;;5.41;nan;-21121.00;5035075;28;20214;-64
2023/12/08 11:21:27;;;;;;;1.53;1.43;;;;;;;5.37;nan;-20803.81;5034049;28;20202;-64
2023/12/08 11:23:54;;;;;;;1.60;1.50;;;;;;;5.31;nan;-20170.19;5034577;28;20182;-63
2023/12/08 11:26:43;;;;;;;2.07;1.87;;;;;;;5.51;nan;-21123.50;5034507;28;20172;-64
2023/12/08 11:29:15;;;;;;;1.30;1.30;;;;;;;5.37;nan;-20803.81;5034337;28;20237;-64
2023/12/08 11:31:55;;;;;;;1.50;1.40;;;;;;;5.42;nan;-20172.50;5034324;28;20183;-64
2023/12/08 11:34:56;;;;;;;1.97;1.33;;;;;;;5.24;nan;-21117.19;5034383;28;20201;-65
2023/12/08 11:37:22;;;;;;;1.20;1.20;;;;;;;5.01;nan;-21427.75;5023627;28;20176;-65
2023/12/08 11:39:48;;;;;;;1.50;1.40;;;;;;;5.19;nan;-21748.19;5014654;28;20653;-65
2023/12/08 11:42:16;;;;;;;2.70;1.87;;;;;;;5.13;nan;-21746.56;5014331;28;20176;-65
2023/12/08 11:44:43;;;;;;;1.73;1.63;;;;;;;5.22;nan;-21748.94;5014164;28;20180;-65
2023/12/08 11:47:10;;;;;;;2.57;2.37;;;;;;;5.23;nan;-21116.84;5014046;28;20175;-65